Time;durP1;ratioP1;P1;durP2;ratioP2;P2;SDS_P1;SDS_P2;PMS_P1;PMS_P2;Temp;Humidity;BMP_temperature;BMP_pressure;BME280_temperature;BME280_humidity;BME280_pressure;Samples;Min_cycle;Max_cycle;Signal;HPM_P1;HPM_P2
2022/10/09 00:01:06;;;;;;;16.43;10.77;;;7.00;99.90;;;;;;5065405;28;20557;-50
2022/10/09 00:03:33;;;;;;;11.77;10.30;;;7.00;99.90;;;;;;5061672;28;20193;-45
2022/10/09 00:05:59;;;;;;;12.43;10.97;;;7.00;99.90;;;;;;5065704;28;20519;-48
2022/10/09 00:08:25;;;;;;;14.03;10.80;;;7.00;99.90;;;;;;5066186;28;22207;-49
2022/10/09 00:10:50;;;;;;;16.53;11.10;;;7.00;99.90;;;;;;5068401;28;20449;-48
2022/10/09 00:13:16;;;;;;;12.40;10.70;;;7.00;99.90;;;;;;5067751;28;21298;-45
2022/10/09 00:15:43;;;;;;;11.70;9.63;;;7.00;99.90;;;;;;5066025;28;20212;-47
2022/10/09 00:18:11;;;;;;;13.80;11.03;;;6.90;99.90;;;;;;5066518;28;20202;-45
2022/10/09 00:20:38;;;;;;;12.77;10.23;;;6.90;99.90;;;;;;5050781;28;20477;-45
2022/10/09 00:23:04;;;;;;;12.40;9.90;;;6.90;99.90;;;;;;5051402;28;20450;-48
2022/10/09 00:25:30;;;;;;;16.23;10.50;;;6.80;99.90;;;;;;5051671;28;20446;-46
2022/10/09 00:27:57;;;;;;;12.57;10.53;;;6.80;99.90;;;;;;5057052;28;20758;-45
2022/10/09 00:30:22;;;;;;;11.60;9.47;;;6.80;99.90;;;;;;5063147;28;20433;-49
2022/10/09 00:32:48;;;;;;;12.83;10.33;;;6.80;99.90;;;;;;5066294;28;20515;-45
2022/10/09 00:35:13;;;;;;;14.87;10.10;;;6.70;99.90;;;;;;5070694;28;20192;-48
2022/10/09 00:37:39;;;;;;;12.17;9.60;;;6.80;99.90;;;;;;5073586;28;20631;-47
2022/10/09 00:40:05;;;;;;;12.60;9.93;;;6.70;99.90;;;;;;5074724;28;20639;-47
2022/10/09 00:42:31;;;;;;;10.87;9.60;;;6.70;99.90;;;;;;5071874;28;20180;-50
2022/10/09 00:45:00;;;;;;;10.70;8.60;;;6.70;99.90;;;;;;5064398;28;20450;-48
2022/10/09 00:47:30;;;;;;;11.77;9.50;;;6.70;99.90;;;;;;5067485;28;20212;-47
2022/10/09 00:50:01;;;;;;;11.68;9.13;;;6.70;99.90;;;;;;5070009;28;20188;-45
2022/10/09 00:52:27;;;;;;;10.03;8.93;;;6.70;99.90;;;;;;5068769;28;20184;-49
2022/10/09 00:54:55;;;;;;;12.33;9.30;;;6.70;99.90;;;;;;5070249;28;20439;-49
2022/10/09 00:57:21;;;;;;;10.05;9.05;;;6.70;99.90;;;;;;5070819;28;20940;-45
2022/10/09 00:59:47;;;;;;;10.73;9.50;;;6.70;99.90;;;;;;5068770;28;20186;-46
2022/10/09 01:02:12;;;;;;;11.37;9.97;;;6.70;99.90;;;;;;5058306;28;20180;-49
2022/10/09 01:04:38;;;;;;;10.57;9.40;;;6.70;99.90;;;;;;5060595;28;20430;-47
2022/10/09 01:07:32;;;;;;;11.50;10.00;;;6.60;99.90;;;;;;5065395;28;20202;-48
2022/10/09 01:10:11;;;;;;;10.87;9.30;;;6.60;99.90;;;;;;5060396;28;20221;-46
2022/10/09 01:13:06;;;;;;;12.48;10.57;;;6.60;99.90;;;;;;5070443;28;20836;-46
2022/10/09 01:15:48;;;;;;;13.40;10.95;;;6.50;99.90;;;;;;5062268;28;20203;-49
2022/10/09 01:18:47;;;;;;;18.77;11.70;;;6.50;99.90;;;;;;5066064;28;20235;-49
2022/10/09 01:21:27;;;;;;;14.55;12.27;;;6.50;99.90;;;;;;5070345;28;20654;-51
2022/10/09 01:24:04;;;;;;;15.23;12.27;;;6.50;99.90;;;;;;5068964;28;20183;-48
2022/10/09 01:26:49;;;;;;;14.63;11.38;;;6.50;99.90;;;;;;5055573;28;20206;-49
2022/10/09 01:29:17;;;;;;;13.20;11.30;;;6.40;99.90;;;;;;5069402;28;20196;-47
2022/10/09 01:31:47;;;;;;;14.23;11.52;;;6.40;99.90;;;;;;5067185;28;20451;-51
2022/10/09 01:34:15;;;;;;;13.48;11.13;;;6.40;99.90;;;;;;5068780;28;20229;-50
2022/10/09 01:36:42;;;;;;;14.60;12.10;;;6.40;99.90;;;;;;5070706;28;20225;-48
2022/10/09 01:39:11;;;;;;;16.40;12.30;;;6.40;99.90;;;;;;5075713;28;20483;-45
2022/10/09 01:41:37;;;;;;;16.52;13.55;;;6.40;99.90;;;;;;5060076;28;20217;-48
2022/10/09 01:44:13;;;;;;;16.00;12.10;;;6.40;99.90;;;;;;5068206;28;20222;-45
2022/10/09 01:46:38;;;;;;;15.93;12.60;;;6.40;99.90;;;;;;5068693;28;20459;-44
2022/10/09 01:49:11;;;;;;;15.53;11.87;;;6.30;99.90;;;;;;5068755;28;20190;-49
2022/10/09 01:51:58;;;;;;;12.50;11.15;;;6.40;99.90;;;;;;5067290;28;20194;-50
2022/10/09 01:54:33;;;;;;;15.32;12.90;;;6.40;99.90;;;;;;5066784;28;20191;-48
2022/10/09 01:57:01;;;;;;;14.13;11.15;;;6.30;99.90;;;;;;5069777;28;20516;-48
2022/10/09 01:59:28;;;;;;;11.57;10.38;;;6.30;99.90;;;;;;5080899;28;20517;-49
2022/10/09 02:01:56;;;;;;;12.68;10.75;;;6.30;99.90;;;;;;5061763;28;20221;-45
2022/10/09 02:07:17;;;;;;;13.48;10.65;;;6.30;99.90;;;;;;5062447;28;20217;-47
2022/10/09 02:09:43;;;;;;;11.73;10.53;;;6.30;99.90;;;;;;5065512;28;20187;-48
2022/10/09 02:12:10;;;;;;;12.25;10.15;;;6.20;99.90;;;;;;5067382;28;20184;-45
2022/10/09 02:14:36;;;;;;;13.60;9.63;;;6.20;99.90;;;;;;5065097;28;20202;-48
2022/10/09 02:17:12;;;;;;;14.87;9.23;;;6.20;99.90;;;;;;5064242;28;20219;-44
2022/10/09 02:19:46;;;;;;;11.20;9.32;;;6.20;99.90;;;;;;5051617;28;20205;-50
2022/10/09 02:22:22;;;;;;;12.50;9.80;;;6.10;99.90;;;;;;5050586;28;20284;-45
2022/10/09 02:24:47;;;;;;;11.23;9.35;;;6.00;99.90;;;;;;5057183;28;20660;-49
2022/10/09 02:27:14;;;;;;;11.13;9.40;;;6.00;99.90;;;;;;5066918;28;20198;-51
2022/10/09 02:29:42;;;;;;;12.20;10.45;;;6.00;99.90;;;;;;5048625;28;20186;-50
2022/10/09 02:32:08;;;;;;;13.00;9.30;;;6.00;99.90;;;;;;5062744;28;20221;-50
2022/10/09 02:34:34;;;;;;;13.35;9.82;;;6.00;99.90;;;;;;5066291;28;20190;-49
2022/10/09 02:37:00;;;;;;;10.10;9.00;;;5.90;99.90;;;;;;5056922;28;20245;-47
2022/10/09 02:39:25;;;;;;;11.43;9.37;;;5.90;99.90;;;;;;5062980;28;20185;-48
2022/10/09 02:41:51;;;;;;;11.43;8.97;;;5.90;99.90;;;;;;5057777;28;20620;-50
2022/10/09 02:44:17;;;;;;;11.90;9.23;;;5.80;99.90;;;;;;5065109;28;20225;-51
2022/10/09 02:46:42;;;;;;;12.60;10.17;;;5.80;99.90;;;;;;5058655;28;20691;-46
2022/10/09 02:49:08;;;;;;;12.67;10.17;;;5.80;99.90;;;;;;5052556;28;20205;-45
2022/10/09 02:51:33;;;;;;;11.60;9.40;;;5.80;99.90;;;;;;5049616;28;20191;-45
2022/10/09 02:53:59;;;;;;;12.93;9.60;;;5.80;99.90;;;;;;5049616;28;20199;-45
2022/10/09 02:56:25;;;;;;;12.60;8.77;;;5.80;99.90;;;;;;5051326;28;20551;-52
2022/10/09 02:58:51;;;;;;;15.35;9.70;;;5.80;99.90;;;;;;5062954;28;20301;-46
2022/10/09 03:01:17;;;;;;;13.80;9.50;;;5.80;99.90;;;;;;5046984;28;20367;-50
2022/10/09 03:03:43;;;;;;;11.97;10.00;;;5.80;99.90;;;;;;5053629;28;20489;-46
2022/10/09 03:06:09;;;;;;;10.50;9.40;;;5.80;99.90;;;;;;5056804;28;20441;-45
2022/10/09 03:08:40;;;;;;;11.75;9.48;;;5.80;99.90;;;;;;5063571;28;20989;-49
2022/10/09 03:11:06;;;;;;;10.85;8.88;;;5.80;99.90;;;;;;5066863;28;20199;-47
2022/10/09 03:13:32;;;;;;;12.93;9.00;;;5.80;99.90;;;;;;5066419;28;20971;-47
2022/10/09 03:16:08;;;;;;;17.03;8.90;;;5.80;99.90;;;;;;5058698;28;20945;-47
2022/10/09 03:18:35;;;;;;;11.40;8.80;;;5.70;99.90;;;;;;5065761;28;20180;-48
2022/10/09 03:21:04;;;;;;;10.93;8.70;;;5.70;99.90;;;;;;5059152;28;20178;-51
2022/10/09 03:23:30;;;;;;;11.45;8.93;;;5.70;99.90;;;;;;5063669;28;20176;-49
2022/10/09 03:26:01;;;;;;;10.20;8.30;;;5.80;99.90;;;;;;5067624;28;20186;-47
2022/10/09 03:28:27;;;;;;;12.65;9.00;;;5.80;99.90;;;;;;5067716;28;20177;-47
2022/10/09 03:30:52;;;;;;;10.43;8.47;;;5.80;99.90;;;;;;5068020;28;20208;-49
2022/10/09 03:33:18;;;;;;;15.13;10.00;;;5.70;99.90;;;;;;5066975;28;20786;-46
2022/10/09 03:35:45;;;;;;;10.32;8.48;;;5.70;99.90;;;;;;5068954;28;20557;-49
2022/10/09 03:38:11;;;;;;;10.32;8.30;;;5.70;99.90;;;;;;5063459;28;20615;-46
2022/10/09 03:40:37;;;;;;;12.50;8.50;;;5.60;99.90;;;;;;5062282;28;20263;-47
2022/10/09 03:43:02;;;;;;;11.93;8.97;;;5.60;99.90;;;;;;5064467;28;20447;-47
2022/10/09 03:45:28;;;;;;;12.20;8.47;;;5.60;99.90;;;;;;5066791;28;20206;-50
2022/10/09 03:47:53;;;;;;;9.20;7.73;;;5.60;99.90;;;;;;5067735;28;20556;-46
2022/10/09 03:50:19;;;;;;;14.50;8.77;;;5.60;99.90;;;;;;5066830;28;20185;-50
2022/10/09 03:52:44;;;;;;;10.63;8.50;;;5.60;99.90;;;;;;5060022;28;20224;-46
2022/10/09 03:55:10;;;;;;;12.40;8.20;;;5.50;99.90;;;;;;5068163;28;20194;-48
2022/10/09 03:57:36;;;;;;;11.07;8.93;;;5.60;99.90;;;;;;5067314;28;20706;-47
2022/10/09 04:00:03;;;;;;;11.03;7.83;;;5.60;99.90;;;;;;5064068;28;20255;-45
2022/10/09 04:02:30;;;;;;;10.20;8.88;;;5.60;99.90;;;;;;5066879;28;20181;-47
2022/10/09 04:04:55;;;;;;;9.73;8.38;;;5.50;99.90;;;;;;5066048;28;20201;-45
2022/10/09 04:07:21;;;;;;;13.90;8.90;;;5.50;99.90;;;;;;5060875;28;20243;-46
2022/10/09 04:09:46;;;;;;;10.43;8.30;;;5.50;99.90;;;;;;5061305;28;20173;-48
2022/10/09 04:12:12;;;;;;;9.93;8.00;;;5.50;99.90;;;;;;5071680;28;20193;-46
2022/10/09 04:14:37;;;;;;;11.20;8.00;;;5.40;99.90;;;;;;5071926;28;20181;-46
2022/10/09 04:17:03;;;;;;;10.00;8.20;;;5.40;99.90;;;;;;5072897;28;20284;-46
2022/10/09 04:19:28;;;;;;;8.80;7.93;;;5.40;99.90;;;;;;5068558;28;20182;-49
2022/10/09 04:21:54;;;;;;;11.40;8.40;;;5.40;99.90;;;;;;5072205;28;20182;-48
2022/10/09 04:24:19;;;;;;;10.37;7.73;;;5.30;99.90;;;;;;5063356;28;20546;-45
2022/10/09 04:26:45;;;;;;;11.87;8.40;;;5.30;99.90;;;;;;5072509;28;20667;-46
2022/10/09 04:29:11;;;;;;;8.90;8.00;;;5.30;99.90;;;;;;5070739;28;20189;-47
2022/10/09 04:31:36;;;;;;;11.93;8.00;;;5.30;99.90;;;;;;5067272;28;20269;-48
2022/10/09 04:34:02;;;;;;;10.67;8.40;;;5.30;99.90;;;;;;5071307;28;20294;-49
2022/10/09 04:36:28;;;;;;;10.00;8.47;;;5.30;99.90;;;;;;5070205;28;20265;-46
2022/10/09 04:38:53;;;;;;;12.40;8.80;;;5.30;99.90;;;;;;5068614;28;20223;-49
2022/10/09 04:41:19;;;;;;;10.57;8.57;;;5.30;99.90;;;;;;5068351;28;20185;-46
2022/10/09 04:43:44;;;;;;;13.93;9.13;;;5.30;99.90;;;;;;5064426;28;20181;-45
2022/10/09 04:46:12;;;;;;;9.80;8.23;;;5.30;99.90;;;;;;5063024;28;20193;-47
2022/10/09 04:48:43;;;;;;;9.73;7.80;;;5.30;99.90;;;;;;5069562;28;20213;-44
2022/10/09 04:51:09;;;;;;;9.23;8.10;;;5.30;99.90;;;;;;5077628;28;20201;-47
2022/10/09 04:53:36;;;;;;;11.18;7.85;;;5.30;99.90;;;;;;5067472;28;20177;-47
2022/10/09 04:56:03;;;;;;;9.65;8.07;;;5.20;99.90;;;;;;5065762;28;20194;-44
2022/10/09 04:58:29;;;;;;;9.82;7.85;;;5.20;99.90;;;;;;5067347;28;20246;-50
2022/10/09 05:00:55;;;;;;;11.80;8.68;;;5.10;99.90;;;;;;5068011;28;20173;-45
2022/10/09 05:03:21;;;;;;;9.93;7.93;;;5.20;99.90;;;;;;5068882;28;20714;-51
2022/10/09 05:05:46;;;;;;;10.47;7.73;;;5.20;99.90;;;;;;5071654;28;20189;-46
2022/10/09 05:08:12;;;;;;;11.20;8.20;;;5.20;99.90;;;;;;5067660;28;20185;-49
2022/10/09 05:10:38;;;;;;;11.20;8.50;;;5.10;99.90;;;;;;5063280;28;20188;-47
2022/10/09 05:13:04;;;;;;;11.70;8.03;;;5.10;99.90;;;;;;5067565;28;20230;-47
2022/10/09 05:15:30;;;;;;;10.98;9.07;;;5.10;99.90;;;;;;5069868;28;20272;-46
2022/10/09 05:17:56;;;;;;;9.68;7.90;;;5.20;99.90;;;;;;5071377;28;20188;-47
2022/10/09 05:20:21;;;;;;;11.00;8.43;;;5.20;99.90;;;;;;5063763;28;20190;-48
2022/10/09 05:22:47;;;;;;;10.03;7.60;;;5.20;99.90;;;;;;5068780;28;20805;-46
2022/10/09 05:25:13;;;;;;;12.80;7.97;;;5.20;99.90;;;;;;5065768;28;20189;-46
2022/10/09 05:27:38;;;;;;;9.63;6.83;;;5.20;99.90;;;;;;5070440;28;20648;-46
2022/10/09 05:30:06;;;;;;;12.00;7.10;;;5.20;99.90;;;;;;5057704;28;20189;-50
2022/10/09 05:32:32;;;;;;;10.57;7.05;;;5.20;99.90;;;;;;5062363;28;20236;-49
2022/10/09 05:34:57;;;;;;;8.27;6.77;;;5.20;99.90;;;;;;5068940;28;20193;-50
2022/10/09 05:37:23;;;;;;;9.70;7.63;;;5.20;99.90;;;;;;5069494;28;20499;-50
2022/10/09 05:39:48;;;;;;;9.17;7.87;;;5.20;99.90;;;;;;5069123;28;20189;-48
2022/10/09 05:42:14;;;;;;;12.43;7.30;;;5.10;99.90;;;;;;5070926;28;20572;-49
2022/10/09 05:44:39;;;;;;;8.70;6.90;;;5.20;99.90;;;;;;5066243;28;20291;-46
2022/10/09 05:47:05;;;;;;;9.40;6.90;;;5.10;99.90;;;;;;5068784;28;20189;-46
2022/10/09 05:49:30;;;;;;;8.70;6.80;;;5.10;99.90;;;;;;5059399;28;20190;-47
2022/10/09 05:51:56;;;;;;;10.20;6.50;;;5.10;99.90;;;;;;5068607;28;20193;-46
2022/10/09 05:54:22;;;;;;;10.03;7.00;;;5.10;99.90;;;;;;5065117;28;20252;-47
2022/10/09 05:56:47;;;;;;;8.87;6.87;;;5.10;99.90;;;;;;5070588;28;20224;-47
2022/10/09 05:59:18;;;;;;;8.63;7.10;;;5.10;99.90;;;;;;5069142;28;20238;-49
2022/10/09 06:01:49;;;;;;;10.60;8.52;;;5.10;99.90;;;;;;5069742;28;20263;-47
2022/10/09 06:04:20;;;;;;;7.80;6.65;;;5.10;99.90;;;;;;5067123;28;20691;-45
2022/10/09 06:06:47;;;;;;;9.32;7.05;;;5.10;99.90;;;;;;5066213;28;20189;-49
2022/10/09 06:09:14;;;;;;;8.68;7.20;;;5.20;99.90;;;;;;5066087;28;20633;-51
2022/10/09 06:11:40;;;;;;;9.98;7.68;;;5.20;99.90;;;;;;5068936;28;20181;-46
2022/10/09 06:14:08;;;;;;;9.55;7.07;;;5.10;99.90;;;;;;5063655;28;20194;-46
2022/10/09 06:16:39;;;;;;;9.07;7.45;;;5.20;99.90;;;;;;5070062;28;20208;-49
2022/10/09 06:19:05;;;;;;;9.75;7.30;;;5.20;99.90;;;;;;5062984;28;20227;-50
2022/10/09 06:21:31;;;;;;;9.80;7.70;;;5.20;99.90;;;;;;5066444;28;20189;-48
2022/10/09 06:23:59;;;;;;;10.23;7.00;;;5.20;99.90;;;;;;5070095;28;21043;-50
2022/10/09 06:26:29;;;;;;;9.73;7.90;;;5.20;99.90;;;;;;5068007;28;20204;-48
2022/10/09 06:28:56;;;;;;;9.77;7.90;;;5.30;99.90;;;;;;5069899;28;20189;-48
2022/10/09 06:31:24;;;;;;;8.57;7.00;;;5.30;99.90;;;;;;5062048;28;20272;-46
2022/10/09 06:33:52;;;;;;;9.77;8.02;;;5.40;99.90;;;;;;5066824;28;20185;-47
2022/10/09 06:36:20;;;;;;;9.93;7.75;;;5.40;99.90;;;;;;5062442;28;20367;-47
2022/10/09 06:38:46;;;;;;;9.65;8.00;;;5.50;99.90;;;;;;5068033;28;20178;-44
2022/10/09 06:41:15;;;;;;;10.43;8.38;;;5.60;99.90;;;;;;5060254;28;21043;-45
2022/10/09 06:43:42;;;;;;;10.70;8.63;;;5.60;99.90;;;;;;5048751;28;20178;-46
2022/10/09 06:46:10;;;;;;;11.38;8.40;;;5.70;99.90;;;;;;5067746;28;20397;-50
2022/10/09 06:48:37;;;;;;;11.40;8.40;;;5.70;99.90;;;;;;5058450;28;20178;-47
2022/10/09 06:51:06;;;;;;;11.57;8.57;;;5.70;99.90;;;;;;5067581;28;20185;-51
2022/10/09 06:53:42;;;;;;;9.95;8.07;;;5.70;99.90;;;;;;5067756;28;20235;-45
2022/10/09 06:56:09;;;;;;;12.32;8.32;;;5.80;99.90;;;;;;5062769;28;20294;-46
2022/10/09 06:58:35;;;;;;;8.98;8.07;;;5.90;99.90;;;;;;5059192;28;20193;-45
2022/10/09 07:01:07;;;;;;;10.07;8.30;;;6.00;99.90;;;;;;5067840;28;20182;-47
2022/10/09 07:03:33;;;;;;;11.23;8.25;;;6.10;99.90;;;;;;5062268;28;20648;-50
2022/10/09 07:06:26;;;;;;;10.77;8.30;;;6.20;99.90;;;;;;5068737;28;20195;-49
2022/10/09 07:08:55;;;;;;;11.00;8.35;;;6.30;99.90;;;;;;5062394;28;20201;-49
2022/10/09 07:11:27;;;;;;;11.88;8.88;;;6.40;99.90;;;;;;5066394;28;20185;-48
2022/10/09 07:13:56;;;;;;;9.50;7.72;;;6.50;99.90;;;;;;5068207;28;20186;-48
2022/10/09 07:16:30;;;;;;;9.45;7.65;;;6.60;99.90;;;;;;5063210;28;20294;-46
2022/10/09 07:18:56;;;;;;;11.82;8.20;;;6.80;99.90;;;;;;5057106;28;20188;-49
2022/10/09 07:21:23;;;;;;;10.10;8.65;;;6.90;99.90;;;;;;5065265;28;20187;-50
2022/10/09 07:23:49;;;;;;;8.93;7.77;;;7.00;99.90;;;;;;5063955;28;20544;-48
2022/10/09 07:26:20;;;;;;;9.40;7.50;;;7.20;99.90;;;;;;5067619;28;20412;-46
2022/10/09 07:28:47;;;;;;;10.47;8.37;;;7.30;99.90;;;;;;5060315;28;20181;-46
2022/10/09 07:31:13;;;;;;;9.13;8.20;;;7.50;99.90;;;;;;5062455;28;21452;-50
2022/10/09 07:33:40;;;;;;;14.63;9.30;;;7.60;99.90;;;;;;5050160;28;20446;-46
2022/10/09 07:36:06;;;;;;;9.27;8.23;;;7.70;99.90;;;;;;5045956;28;20576;-45
2022/10/09 07:38:33;;;;;;;10.03;8.27;;;7.80;99.90;;;;;;5044926;28;20439;-46
2022/10/09 07:41:04;;;;;;;10.83;8.60;;;7.90;99.90;;;;;;5041799;28;20420;-45
2022/10/09 07:43:30;;;;;;;13.67;7.90;;;7.90;99.90;;;;;;5044334;28;20969;-49
2022/10/09 07:46:00;;;;;;;13.33;9.10;;;8.10;99.90;;;;;;5052220;28;20427;-49
2022/10/09 07:48:26;;;;;;;9.97;7.23;;;8.30;99.90;;;;;;5046665;28;21022;-45
2022/10/09 07:50:51;;;;;;;10.57;7.30;;;8.40;99.90;;;;;;5049072;28;20423;-46
2022/10/09 07:53:17;;;;;;;8.33;7.20;;;8.60;99.90;;;;;;5048476;28;20428;-50
2022/10/09 07:55:47;;;;;;;12.77;6.93;;;9.00;99.90;;;;;;5046334;28;20205;-48
2022/10/09 07:58:14;;;;;;;9.13;7.10;;;9.30;99.90;;;;;;5061911;28;20185;-52
2022/10/09 08:00:40;;;;;;;7.70;6.00;;;9.60;99.90;;;;;;5048403;28;20550;-47
2022/10/09 08:03:06;;;;;;;9.53;6.07;;;10.10;99.90;;;;;;5061290;28;20430;-46
2022/10/09 08:05:32;;;;;;;5.97;4.70;;;10.60;99.90;;;;;;5057246;28;20462;-48
2022/10/09 08:07:58;;;;;;;5.77;4.63;;;11.40;99.90;;;;;;5057095;28;20436;-48
2022/10/09 08:10:23;;;;;;;6.90;4.20;;;12.10;99.90;;;;;;5046049;28;20209;-46
2022/10/09 08:12:49;;;;;;;5.93;4.17;;;12.80;99.90;;;;;;5055858;28;20179;-47
2022/10/09 08:15:15;;;;;;;4.53;4.13;;;13.50;99.90;;;;;;5049202;28;20179;-48
2022/10/09 08:17:41;;;;;;;5.00;4.20;;;14.20;99.90;;;;;;5060979;28;20232;-49
2022/10/09 08:20:07;;;;;;;5.00;4.50;;;15.10;99.90;;;;;;5065495;28;20191;-50
2022/10/09 08:22:33;;;;;;;5.07;4.37;;;15.90;99.90;;;;;;5071455;28;20434;-50
2022/10/09 08:24:58;;;;;;;4.90;4.47;;;16.60;99.90;;;;;;5069934;28;20879;-48
2022/10/09 08:27:24;;;;;;;5.07;4.57;;;17.10;99.90;;;;;;5070447;28;20256;-47
2022/10/09 08:29:50;;;;;;;5.77;4.43;;;17.30;96.10;;;;;;5063850;28;20782;-49
2022/10/09 08:32:16;;;;;;;4.53;4.13;;;17.60;93.20;;;;;;5070476;28;20192;-46
2022/10/09 08:34:41;;;;;;;4.93;4.60;;;17.60;92.20;;;;;;5062419;28;20417;-49
2022/10/09 08:37:07;;;;;;;5.63;4.67;;;18.00;91.20;;;;;;5067891;28;20677;-45
2022/10/09 08:39:32;;;;;;;5.27;4.83;;;18.50;91.60;;;;;;5067030;28;20615;-45
2022/10/09 08:42:02;;;;;;;6.87;5.17;;;19.10;87.40;;;;;;5067094;28;20636;-46
2022/10/09 08:44:38;;;;;;;7.37;4.80;;;19.10;83.60;;;;;;5062680;28;20187;-47
2022/10/09 08:47:25;;;;;;;5.10;4.70;;;19.60;79.70;;;;;;5067255;28;20427;-48
2022/10/09 08:49:54;;;;;;;5.20;4.70;;;19.60;76.40;;;;;;5065441;28;20510;-47
2022/10/09 08:52:45;;;;;;;5.40;4.90;;;20.00;77.80;;;;;;5065349;28;20426;-48
2022/10/09 08:55:25;;;;;;;5.07;4.67;;;20.30;74.00;;;;;;5063352;28;20427;-47
2022/10/09 08:58:03;;;;;;;4.63;4.23;;;21.20;72.40;;;;;;5066408;28;20428;-45
2022/10/09 09:00:40;;;;;;;4.97;4.57;;;21.50;66.30;;;;;;5055065;28;20689;-49
2022/10/09 09:03:33;;;;;;;6.13;5.57;;;21.50;62.70;;;;;;5055259;28;20474;-47
2022/10/09 09:06:08;;;;;;;5.47;4.97;;;22.40;59.90;;;;;;5065594;28;20447;-49
2022/10/09 09:08:49;;;;;;;5.53;5.10;;;22.80;56.00;;;;;;5067536;28;20466;-51
2022/10/09 09:11:23;;;;;;;5.20;4.80;;;22.10;55.20;;;;;;5068634;28;20872;-49
2022/10/09 09:14:08;;;;;;;5.20;4.70;;;22.00;57.60;;;;;;5066950;28;20522;-50
2022/10/09 09:16:50;;;;;;;5.37;4.97;;;21.70;57.60;;;;;;5060830;28;20482;-48
2022/10/09 09:19:25;;;;;;;5.83;5.13;;;21.70;59.00;;;;;;5064308;28;20782;-49
2022/10/09 09:21:52;;;;;;;4.40;4.10;;;21.70;57.40;;;;;;5067424;28;20513;-46
2022/10/09 09:24:23;;;;;;;5.10;4.60;;;22.50;54.30;;;;;;5063136;28;20446;-49
2022/10/09 09:26:54;;;;;;;4.83;4.30;;;22.90;52.90;;;;;;5062579;28;20509;-47
2022/10/09 09:29:22;;;;;;;4.77;4.47;;;23.30;51.90;;;;;;5043376;28;20425;-47
2022/10/09 09:31:58;;;;;;;4.90;4.50;;;23.60;51.70;;;;;;5042300;28;20443;-49
2022/10/09 09:34:33;;;;;;;4.73;4.27;;;23.50;50.60;;;;;;5047623;28;20427;-48
2022/10/09 09:37:00;;;;;;;5.10;4.57;;;23.00;51.40;;;;;;5007363;28;1085918;-46
2022/10/09 09:39:33;;;;;;;5.17;4.40;;;23.10;49.80;;;;;;5052835;28;20726;-48
2022/10/09 09:42:09;;;;;;;5.20;4.70;;;23.40;51.60;;;;;;5044511;28;20424;-47
2022/10/09 09:44:40;;;;;;;4.50;4.20;;;23.80;49.30;;;;;;5044736;28;20427;-48
2022/10/09 09:47:16;;;;;;;7.43;4.20;;;24.30;49.40;;;;;;5063985;28;20411;-51
2022/10/09 09:49:53;;;;;;;5.17;4.77;;;24.20;47.90;;;;;;5068125;28;20442;-48
2022/10/09 09:52:19;;;;;;;4.80;4.03;;;24.40;47.90;;;;;;5067716;28;20502;-51
2022/10/09 09:54:48;;;;;;;18.70;17.20;;;24.60;47.50;;;;;;5062085;28;20773;-47
2022/10/09 09:57:26;;;;;;;5.90;5.30;;;24.10;48.70;;;;;;5068831;28;20391;-46
2022/10/09 09:59:52;;;;;;;5.47;4.40;;;24.50;48.20;;;;;;5054701;28;20447;-46
2022/10/09 10:02:23;;;;;;;5.23;4.67;;;24.90;47.80;;;;;;5066595;28;20439;-46
2022/10/09 10:04:56;;;;;;;4.67;4.27;;;25.20;45.60;;;;;;5069229;28;20718;-47
2022/10/09 10:07:37;;;;;;;5.37;4.30;;;25.40;45.90;;;;;;5069187;28;20442;-45
2022/10/09 10:10:14;;;;;;;3.73;3.40;;;25.20;46.30;;;;;;5067799;28;20439;-48
2022/10/09 10:12:45;;;;;;;5.93;3.73;;;24.70;45.20;;;;;;5067689;28;20439;-47
2022/10/09 10:15:20;;;;;;;3.73;3.43;;;24.60;44.50;;;;;;5068833;28;20443;-47
2022/10/09 10:17:48;;;;;;;4.20;3.80;;;24.80;44.60;;;;;;5068540;28;20470;-48
2022/10/09 10:20:16;;;;;;;6.00;3.90;;;24.80;45.30;;;;;;5067639;28;20459;-51
2022/10/09 10:22:50;;;;;;;6.20;3.70;;;24.60;43.60;;;;;;5067408;28;20436;-44
2022/10/09 10:25:17;;;;;;;7.00;4.20;;;25.40;42.60;;;;;;5071666;28;20439;-46
2022/10/09 10:27:48;;;;;;;4.27;3.77;;;25.60;41.70;;;;;;5057492;28;20440;-49
2022/10/09 10:30:17;;;;;;;4.00;3.03;;;26.50;39.80;;;;;;5063742;28;20442;-48
2022/10/09 10:33:04;;;;;;;3.93;3.53;;;25.90;37.50;;;;;;5066894;28;20477;-48
2022/10/09 10:35:37;;;;;;;4.93;3.27;;;25.80;38.20;;;;;;5061021;28;20518;-45
2022/10/09 10:38:17;;;;;;;6.20;3.23;;;26.50;36.70;;;;;;5054929;28;20443;-46
2022/10/09 10:40:52;;;;;;;5.03;3.33;;;27.00;34.90;;;;;;5067227;28;20443;-46
2022/10/09 10:43:37;;;;;;;3.77;3.40;;;27.70;34.40;;;;;;5064840;28;20553;-45
2022/10/09 10:46:28;;;;;;;3.97;3.57;;;27.10;32.00;;;;;;5061898;28;20506;-50
2022/10/09 10:48:53;;;;;;;3.90;3.50;;;27.70;31.50;;;;;;5058106;28;20424;-50
2022/10/09 10:51:57;;;;;;;4.20;3.27;;;28.10;30.00;;;;;;5050329;28;20944;-49
2022/10/09 10:54:39;;;;;;;4.30;3.90;;;27.60;29.90;;;;;;5066969;28;20176;-50
2022/10/09 10:57:11;;;;;;;4.70;4.30;;;27.00;33.10;;;;;;5068246;28;20790;-50
2022/10/09 11:00:04;;;;;;;3.60;3.40;;;26.80;32.80;;;;;;5068887;28;20522;-46
2022/10/09 11:03:07;;;;;;;3.67;3.30;;;27.40;31.20;;;;;;5054731;28;20794;-48
2022/10/09 11:05:41;;;;;;;4.70;4.13;;;27.30;32.00;;;;;;5082029;28;21346;-49
2022/10/09 11:08:33;;;;;;;6.13;5.63;;;27.30;32.40;;;;;;5063399;28;20474;-49
2022/10/09 11:11:07;;;;;;;3.47;3.13;;;27.30;32.20;;;;;;5064764;28;20488;-46
2022/10/09 11:13:57;;;;;;;3.30;2.97;;;27.50;32.40;;;;;;5063331;28;20504;-50
2022/10/09 11:16:46;;;;;;;4.13;3.60;;;27.30;31.30;;;;;;5067464;28;20467;-48
2022/10/09 11:19:27;;;;;;;3.60;3.30;;;27.20;31.30;;;;;;5066340;28;20467;-47
2022/10/09 11:21:55;;;;;;;3.40;3.10;;;26.90;29.90;;;;;;5071047;28;20534;-49
2022/10/09 11:24:35;;;;;;;4.97;3.60;;;27.30;28.00;;;;;;5068191;28;20504;-47
2022/10/09 11:27:24;;;;;;;3.67;3.37;;;27.10;28.20;;;;;;5065637;28;20909;-50
2022/10/09 11:30:02;;;;;;;6.47;5.87;;;26.90;30.10;;;;;;5063208;28;20918;-52
2022/10/09 11:32:35;;;;;;;4.90;3.10;;;27.30;29.50;;;;;;5066731;28;20433;-49
2022/10/09 11:35:21;;;;;;;5.33;3.33;;;27.40;27.80;;;;;;5062281;28;21005;-47
2022/10/09 11:37:57;;;;;;;4.00;3.70;;;27.30;27.70;;;;;;5059650;28;20747;-48
2022/10/09 11:40:28;;;;;;;4.27;3.00;;;27.60;28.10;;;;;;5060460;28;20426;-51
2022/10/09 11:43:06;;;;;;;4.77;4.20;;;27.60;27.60;;;;;;5066206;28;20415;-47
2022/10/09 11:45:39;;;;;;;3.60;3.30;;;27.40;28.80;;;;;;5066100;28;20435;-48
2022/10/09 11:48:29;;;;;;;3.70;3.40;;;27.20;28.20;;;;;;5052615;28;20450;-50
2022/10/09 11:51:18;;;;;;;5.73;3.43;;;27.50;28.20;;;;;;5057602;28;20493;-47
2022/10/09 11:53:45;;;;;;;3.23;3.03;;;27.90;25.80;;;;;;5066793;28;20435;-47
2022/10/09 11:56:26;;;;;;;3.60;3.30;;;27.90;26.60;;;;;;5058269;28;20484;-47
2022/10/09 11:58:57;;;;;;;3.60;3.30;;;28.20;25.20;;;;;;5052451;28;20913;-46
2022/10/09 12:01:28;;;;;;;5.10;3.40;;;28.10;25.70;;;;;;5059432;28;20434;-53
2022/10/09 12:04:08;;;;;;;3.90;3.50;;;27.70;27.10;;;;;;5067863;28;20435;-47
2022/10/09 12:06:47;;;;;;;3.47;3.20;;;28.10;26.80;;;;;;5061842;28;20534;-50
2022/10/09 12:09:29;;;;;;;3.27;2.97;;;28.30;25.70;;;;;;5068425;28;20937;-48
2022/10/09 12:11:59;;;;;;;3.10;2.97;;;28.50;24.60;;;;;;5067158;28;20438;-49
2022/10/09 12:14:27;;;;;;;3.40;3.20;;;28.30;24.40;;;;;;5072567;28;20439;-48
2022/10/09 12:16:53;;;;;;;4.73;3.27;;;28.10;25.00;;;;;;5068157;28;20890;-48
2022/10/09 12:19:39;;;;;;;3.50;3.30;;;28.50;23.50;;;;;;5066743;28;20439;-49
2022/10/09 12:22:11;;;;;;;3.27;3.07;;;28.80;24.10;;;;;;5065914;28;20435;-45
2022/10/09 12:24:40;;;;;;;3.00;2.80;;;28.90;24.10;;;;;;5066255;28;20509;-45
2022/10/09 12:27:07;;;;;;;3.40;3.20;;;28.60;24.70;;;;;;5068507;28;20424;-49
2022/10/09 12:29:42;;;;;;;3.60;2.90;;;28.30;25.00;;;;;;5059987;28;20444;-47
2022/10/09 12:32:22;;;;;;;4.07;3.80;;;28.10;25.50;;;;;;5063969;28;20968;-50
2022/10/09 12:34:49;;;;;;;2.70;2.50;;;28.20;25.00;;;;;;5064781;28;20447;-52
2022/10/09 12:37:21;;;;;;;3.53;3.23;;;28.20;23.60;;;;;;5064645;28;20567;-51
2022/10/09 12:39:48;;;;;;;3.60;3.17;;;28.10;24.30;;;;;;5063188;28;20436;-46
2022/10/09 12:42:21;;;;;;;3.67;3.37;;;27.90;24.70;;;;;;5060423;28;20411;-47
2022/10/09 12:44:49;;;;;;;3.73;3.47;;;27.40;25.00;;;;;;5072176;28;20412;-45
2022/10/09 12:47:27;;;;;;;4.73;4.30;;;27.80;25.70;;;;;;5058917;28;20876;-46
2022/10/09 12:49:58;;;;;;;3.50;3.30;;;28.20;25.70;;;;;;5064394;28;20435;-52
2022/10/09 12:52:24;;;;;;;3.87;3.50;;;28.20;25.80;;;;;;5070590;28;20446;-47
2022/10/09 12:54:49;;;;;;;3.53;3.23;;;28.40;25.10;;;;;;5071761;28;20858;-49
2022/10/09 12:57:16;;;;;;;4.10;3.57;;;28.50;25.00;;;;;;5071660;28;20498;-49
2022/10/09 12:59:44;;;;;;;3.60;3.40;;;28.60;25.10;;;;;;5066725;28;20191;-46
2022/10/09 13:02:14;;;;;;;3.87;3.50;;;28.90;24.40;;;;;;5070017;28;20443;-46
2022/10/09 13:04:40;;;;;;;3.70;3.47;;;28.80;23.70;;;;;;5063302;28;20748;-48
2022/10/09 13:07:15;;;;;;;4.13;3.50;;;28.60;24.70;;;;;;5072830;28;20455;-52